createdAt,value
2022-10-28T00:01:12.242Z,58.00
2022-10-28T00:03:51.021Z,58.50
2022-10-28T00:06:21.650Z,56.40
2022-10-28T00:08:49.729Z,57.30
2022-10-28T00:11:26.390Z,56.90
2022-10-28T00:13:55.989Z,54.70
2022-10-28T00:16:25.815Z,56.20
2022-10-28T00:18:54.467Z,58.10
2022-10-28T00:21:26.059Z,57.40
2022-10-28T00:23:53.869Z,53.00
2022-10-28T00:26:24.057Z,56.60
2022-10-28T00:28:57.045Z,53.10
2022-10-28T00:31:26.573Z,57.50
2022-10-28T00:33:54.575Z,56.50
2022-10-28T00:36:24.705Z,60.00
2022-10-28T00:38:53.847Z,58.10
2022-10-28T00:41:27.140Z,63.70
2022-10-28T00:44:00.561Z,60.60
2022-10-28T00:46:39.694Z,58.20
2022-10-28T00:49:17.324Z,56.40
2022-10-28T00:51:46.989Z,57.10
2022-10-28T00:54:16.506Z,56.40
2022-10-28T00:56:46.264Z,53.50
2022-10-28T00:59:20.043Z,56.00
2022-10-28T01:01:47.800Z,51.70
2022-10-28T01:04:16.521Z,49.50
2022-10-28T01:06:44.666Z,59.20
2022-10-28T01:09:12.339Z,59.90
2022-10-28T01:11:42.830Z,57.50
2022-10-28T01:14:21.964Z,51.50
2022-10-28T01:17:03.181Z,55.70
2022-10-28T01:19:52.922Z,54.00
2022-10-28T01:22:29.010Z,51.20
2022-10-28T01:25:24.764Z,52.30
2022-10-28T01:28:30.428Z,53.00
2022-10-28T01:31:09.935Z,53.40
2022-10-28T01:33:50.893Z,53.00
2022-10-28T01:36:27.981Z,48.60
2022-10-28T01:39:12.487Z,48.30
2022-10-28T01:41:51.046Z,43.70
2022-10-28T01:44:25.048Z,45.60
2022-10-28T01:47:08.695Z,48.90
2022-10-28T01:50:02.621Z,47.60
2022-10-28T01:52:31.856Z,53.10
2022-10-28T01:55:06.781Z,51.40
2022-10-28T01:57:36.849Z,53.60
2022-10-28T02:00:05.399Z,52.30
2022-10-28T02:02:40.647Z,50.60
2022-10-28T02:05:39.469Z,50.20
2022-10-28T02:08:20.352Z,51.20
2022-10-28T02:11:04.255Z,53.70
2022-10-28T02:13:46.416Z,53.30
2022-10-28T02:16:19.833Z,51.90
2022-10-28T02:19:00.106Z,51.40
2022-10-28T02:21:33.733Z,52.60
2022-10-28T02:24:09.858Z,52.90
2022-10-28T02:26:41.571Z,51.70
2022-10-28T02:29:19.696Z,54.00
2022-10-28T02:31:53.813Z,53.70
2022-10-28T02:34:36.812Z,53.00
2022-10-28T02:37:10.933Z,56.20
2022-10-28T02:39:41.913Z,56.40
2022-10-28T02:42:17.353Z,61.90
2022-10-28T02:44:49.119Z,66.30
2022-10-28T02:47:20.319Z,70.90
2022-10-28T02:49:52.187Z,81.10
2022-10-28T02:52:20.846Z,85.60
2022-10-28T02:54:57.019Z,87.70
2022-10-28T02:57:27.077Z,88.40
2022-10-28T02:59:57.721Z,90.00
2022-10-28T03:02:26.291Z,89.60
2022-10-28T03:04:54.140Z,86.90
2022-10-28T03:07:21.703Z,85.20
2022-10-28T03:09:49.479Z,84.20
2022-10-28T03:12:17.392Z,83.50
2022-10-28T03:14:44.970Z,79.90
2022-10-28T03:17:12.621Z,79.50
2022-10-28T03:19:40.165Z,77.60
2022-10-28T03:22:07.776Z,75.90
2022-10-28T03:24:35.315Z,74.00
2022-10-28T03:27:03.773Z,72.20
2022-10-28T03:29:31.509Z,71.60
2022-10-28T03:31:59.045Z,70.60
2022-10-28T03:34:26.558Z,69.40
2022-10-28T03:36:54.175Z,66.80
2022-10-28T03:39:21.728Z,65.30
2022-10-28T03:41:49.295Z,61.80
2022-10-28T03:44:16.821Z,60.70
2022-10-28T03:46:44.397Z,60.80
2022-10-28T03:49:11.905Z,59.30
2022-10-28T03:51:39.413Z,59.80
2022-10-28T03:54:07.018Z,59.90
2022-10-28T03:56:34.574Z,58.60
2022-10-28T03:59:02.107Z,59.20
2022-10-28T04:01:29.723Z,59.90
2022-10-28T04:03:57.384Z,59.30
2022-10-28T04:06:25.137Z,57.40
2022-10-28T04:08:52.653Z,58.50
2022-10-28T04:11:20.157Z,60.20
2022-10-28T04:13:47.872Z,58.70
2022-10-28T04:16:15.362Z,58.40
2022-10-28T04:18:42.855Z,59.20
2022-10-28T04:21:10.567Z,61.00
2022-10-28T04:23:38.126Z,58.30
2022-10-28T04:26:05.818Z,59.90
2022-10-28T04:28:33.425Z,61.10
2022-10-28T04:31:02.736Z,61.00
2022-10-28T04:33:31.047Z,61.30
2022-10-28T04:35:58.645Z,62.20
2022-10-28T04:38:26.251Z,61.20
2022-10-28T04:40:53.802Z,60.10
2022-10-28T04:43:21.388Z,61.70
2022-10-28T04:45:48.941Z,61.70
2022-10-28T04:48:16.469Z,63.10
2022-10-28T04:50:44.522Z,63.20
2022-10-28T04:53:13.133Z,65.10
2022-10-28T04:55:40.659Z,64.40
2022-10-28T04:58:09.624Z,64.10
2022-10-28T05:00:37.122Z,64.80
2022-10-28T05:03:04.647Z,64.50
2022-10-28T05:05:32.482Z,66.00
2022-10-28T05:08:00.069Z,67.60
2022-10-28T05:10:27.812Z,66.30
2022-10-28T05:12:55.462Z,67.40
2022-10-28T05:15:23.104Z,66.30
2022-10-28T05:17:50.884Z,66.70
2022-10-28T05:20:19.921Z,66.50
2022-10-28T05:22:49.097Z,65.40
2022-10-28T05:25:17.667Z,65.30
2022-10-28T05:27:45.661Z,67.00
2022-10-28T05:30:13.940Z,65.80
2022-10-28T05:32:41.845Z,66.80
2022-10-28T05:35:09.927Z,64.70
2022-10-28T05:37:38.179Z,64.60
2022-10-28T05:40:06.437Z,65.50
2022-10-28T05:42:33.931Z,65.20
2022-10-28T05:45:01.451Z,67.20
2022-10-28T05:47:28.954Z,65.80
2022-10-28T05:49:56.479Z,65.20
2022-10-28T05:52:24.042Z,65.30
2022-10-28T05:54:51.574Z,66.90
2022-10-28T05:57:19.106Z,64.70
2022-10-28T05:59:46.865Z,63.30
2022-10-28T06:02:15.061Z,64.40
2022-10-28T06:04:42.721Z,63.90
2022-10-28T06:07:10.268Z,64.60
2022-10-28T06:09:38.189Z,64.10
2022-10-28T06:12:05.233Z,63.10
2022-10-28T06:14:33.213Z,62.90
2022-10-28T06:17:02.128Z,62.00
2022-10-28T06:19:29.699Z,61.70
2022-10-28T06:21:57.221Z,60.40
2022-10-28T06:24:24.912Z,61.10
2022-10-28T06:26:52.431Z,59.30
2022-10-28T06:29:20.043Z,57.90
2022-10-28T06:31:47.641Z,58.90
2022-10-28T06:34:15.428Z,59.90
2022-10-28T06:36:42.969Z,58.90
2022-10-28T06:39:10.729Z,58.60
2022-10-28T06:41:38.238Z,58.60
2022-10-28T06:44:05.756Z,56.90
2022-10-28T06:46:35.358Z,59.40
2022-10-28T06:49:03.716Z,59.20
2022-10-28T06:51:32.038Z,58.90
2022-10-28T06:54:00.281Z,56.80
2022-10-28T06:56:27.933Z,57.80
2022-10-28T06:58:55.554Z,55.30
2022-10-28T07:01:29.367Z,55.10
2022-10-28T07:03:59.048Z,54.10
2022-10-28T07:06:26.587Z,53.10
2022-10-28T07:08:54.127Z,51.80
2022-10-28T07:11:21.691Z,55.80
2022-10-28T07:13:49.215Z,52.90
2022-10-28T07:16:16.738Z,52.20
2022-10-28T07:18:44.303Z,51.30
2022-10-28T07:21:12.282Z,51.10
2022-10-28T07:23:39.917Z,48.70
2022-10-28T07:26:07.525Z,49.90
2022-10-28T07:28:35.155Z,48.00
2022-10-28T07:31:03.260Z,48.20
2022-10-28T07:33:31.316Z,48.70
2022-10-28T07:35:59.177Z,47.10
2022-10-28T07:38:26.769Z,46.10
2022-10-28T07:40:54.330Z,44.90
2022-10-28T07:43:21.962Z,45.00
2022-10-28T07:45:55.889Z,43.00
2022-10-28T07:48:23.535Z,42.50
2022-10-28T07:50:51.274Z,40.70
2022-10-28T07:53:18.800Z,40.30
2022-10-28T07:55:56.180Z,40.10
2022-10-28T07:58:23.846Z,39.80
2022-10-28T08:00:51.897Z,39.30
2022-10-28T08:03:19.842Z,38.70
2022-10-28T08:05:47.886Z,40.10
2022-10-28T08:08:15.405Z,40.30
2022-10-28T08:10:43.144Z,41.00
2022-10-28T08:13:11.371Z,38.80
2022-10-28T08:15:38.940Z,40.30
2022-10-28T08:18:06.430Z,41.70
2022-10-28T08:20:33.965Z,41.90
2022-10-28T08:23:03.971Z,43.00
2022-10-28T08:25:34.633Z,43.00
2022-10-28T08:28:02.113Z,42.30
2022-10-28T08:30:36.554Z,43.60
2022-10-28T08:33:13.526Z,43.00
2022-10-28T08:35:42.255Z,42.90
2022-10-28T08:38:09.863Z,42.60
2022-10-28T08:40:54.231Z,44.10
2022-10-28T08:43:40.357Z,43.00
2022-10-28T08:46:24.775Z,39.30
2022-10-28T08:48:52.343Z,37.70
2022-10-28T08:51:30.161Z,40.70
2022-10-28T08:54:01.196Z,42.70
2022-10-28T08:56:33.718Z,42.50
2022-10-28T08:59:03.805Z,40.70
2022-10-28T09:01:44.442Z,37.80
2022-10-28T09:04:35.596Z,36.80
2022-10-28T09:07:03.986Z,37.20
2022-10-28T09:09:32.419Z,36.30
2022-10-28T09:12:23.255Z,36.60
2022-10-28T09:15:22.179Z,34.80
2022-10-28T09:17:57.138Z,33.20
2022-10-28T09:20:44.719Z,33.40
2022-10-28T09:23:22.156Z,33.10
2022-10-28T09:25:54.627Z,31.20
2022-10-28T09:28:31.186Z,29.80
2022-10-28T09:31:18.015Z,28.30
2022-10-28T09:34:01.447Z,27.80
2022-10-28T09:36:33.283Z,27.50
2022-10-28T09:39:01.945Z,27.20
2022-10-28T09:41:33.937Z,26.10
2022-10-28T09:44:08.719Z,24.60
2022-10-28T09:46:37.719Z,24.60
2022-10-28T09:49:11.786Z,24.30
2022-10-28T09:51:46.697Z,23.10
2022-10-28T09:54:14.985Z,22.10
2022-10-28T09:56:42.537Z,20.70
2022-10-28T09:59:13.858Z,22.20
2022-10-28T10:01:43.174Z,22.30
2022-10-28T10:04:18.960Z,22.20
2022-10-28T10:06:50.100Z,22.40
2022-10-28T10:09:24.852Z,21.90
2022-10-28T10:11:55.449Z,21.40
2022-10-28T10:14:28.722Z,21.40
2022-10-28T10:17:04.381Z,20.10
2022-10-28T10:19:57.930Z,19.60
2022-10-28T10:22:37.305Z,18.70
2022-10-28T10:25:23.566Z,18.10
2022-10-28T10:28:03.810Z,18.10
2022-10-28T10:30:33.992Z,18.60
2022-10-28T10:33:02.488Z,18.60
2022-10-28T10:35:39.136Z,18.30
2022-10-28T10:38:06.942Z,16.80
2022-10-28T10:40:50.325Z,16.80
2022-10-28T10:43:18.094Z,16.10
2022-10-28T10:45:58.990Z,16.00
2022-10-28T10:48:28.004Z,15.10
2022-10-28T10:50:56.033Z,14.50
2022-10-28T10:53:26.519Z,15.90
2022-10-28T10:56:02.273Z,17.00
2022-10-28T10:58:35.206Z,17.10
2022-10-28T11:01:05.183Z,16.30
2022-10-28T11:03:47.376Z,15.60
2022-10-28T11:06:23.912Z,15.50
2022-10-28T11:09:05.259Z,16.40
2022-10-28T11:11:40.413Z,17.30
2022-10-28T11:14:10.727Z,16.20
2022-10-28T11:16:58.629Z,16.60
2022-10-28T11:19:35.600Z,14.90
2022-10-28T11:22:33.020Z,14.70
2022-10-28T11:25:38.316Z,14.90
2022-10-28T11:28:40.022Z,13.70
2022-10-28T11:31:26.340Z,15.10
2022-10-28T11:34:31.236Z,13.40
2022-10-28T11:37:10.180Z,13.80
2022-10-28T11:40:06.667Z,13.10
2022-10-28T11:42:42.026Z,12.30
2022-10-28T11:45:24.959Z,13.70
2022-10-28T11:48:29.945Z,12.60
2022-10-28T11:51:10.070Z,13.50
2022-10-28T11:54:03.629Z,12.00
2022-10-28T11:56:42.244Z,11.00
2022-10-28T11:59:43.819Z,9.60
2022-10-28T12:02:33.640Z,8.80
2022-10-28T12:05:23.665Z,10.40
2022-10-28T12:08:01.320Z,9.90
2022-10-28T12:10:41.328Z,10.40
2022-10-28T12:13:14.004Z,10.00
2022-10-28T12:15:55.859Z,9.50
2022-10-28T12:18:33.682Z,10.10
2022-10-28T12:21:10.419Z,9.10
2022-10-28T12:23:39.195Z,9.20
2022-10-28T12:26:09.679Z,9.50
2022-10-28T12:28:42.142Z,9.50
2022-10-28T12:31:19.639Z,9.40
2022-10-28T12:33:50.044Z,9.90
2022-10-28T12:36:37.865Z,9.50
2022-10-28T12:39:18.659Z,8.50
2022-10-28T12:42:00.919Z,9.10
2022-10-28T12:44:29.561Z,9.60
2022-10-28T12:47:14.824Z,10.20
2022-10-28T12:50:08.040Z,8.90
2022-10-28T12:53:06.212Z,8.90
2022-10-28T12:55:42.836Z,8.60
2022-10-28T12:58:29.572Z,8.80
2022-10-28T13:01:08.417Z,9.20
2022-10-28T13:03:36.393Z,9.00
2022-10-28T13:06:43.812Z,8.70
2022-10-28T13:09:39.127Z,8.20
2022-10-28T13:12:16.243Z,8.40
2022-10-28T13:14:55.839Z,8.20
2022-10-28T13:17:46.449Z,7.50
2022-10-28T13:20:52.525Z,7.10
2022-10-28T13:23:29.746Z,7.40
2022-10-28T13:26:16.721Z,7.30
2022-10-28T13:28:49.401Z,6.80
2022-10-28T13:31:17.446Z,7.30
2022-10-28T13:33:52.699Z,7.20
2022-10-28T13:36:29.403Z,7.40
2022-10-28T13:39:00.012Z,7.90
2022-10-28T13:41:40.981Z,6.70
2022-10-28T13:44:23.181Z,7.30
2022-10-28T13:46:57.197Z,7.50
2022-10-28T13:49:35.098Z,7.50
2022-10-28T13:52:19.589Z,7.50
2022-10-28T13:54:48.184Z,7.10
2022-10-28T13:57:28.890Z,8.10
2022-10-28T14:00:22.230Z,7.40
2022-10-28T14:02:58.397Z,7.80
2022-10-28T14:05:46.687Z,7.20
2022-10-28T14:08:20.703Z,7.50
2022-10-28T14:11:13.957Z,7.30
2022-10-28T14:13:56.907Z,7.30
2022-10-28T14:16:31.301Z,7.40
2022-10-28T14:19:16.514Z,7.70
2022-10-28T14:21:50.124Z,7.30
2022-10-28T14:24:42.934Z,7.20
2022-10-28T14:27:15.221Z,7.10
2022-10-28T14:29:44.002Z,7.90
2022-10-28T14:32:55.397Z,7.70
2022-10-28T14:35:51.151Z,7.40
2022-10-28T14:38:38.757Z,7.60
2022-10-28T14:41:18.450Z,7.40
2022-10-28T14:43:58.271Z,6.90
2022-10-28T14:46:36.138Z,7.30
2022-10-28T14:49:04.244Z,8.70
2022-10-28T14:51:41.856Z,8.50
2022-10-28T14:54:15.461Z,7.60
2022-10-28T14:56:43.327Z,8.20
2022-10-28T14:59:24.075Z,7.80
2022-10-28T15:02:02.492Z,8.20
2022-10-28T15:04:30.388Z,7.50
2022-10-28T15:06:58.689Z,8.60
2022-10-28T15:09:31.057Z,7.50
2022-10-28T15:12:08.382Z,7.10
2022-10-28T15:14:41.039Z,7.40
2022-10-28T15:17:20.524Z,7.70
2022-10-28T15:19:51.612Z,8.60
2022-10-28T15:22:30.692Z,7.80
2022-10-28T15:25:25.676Z,7.10
2022-10-28T15:27:54.105Z,6.90
2022-10-28T15:30:24.019Z,7.10
2022-10-28T15:32:53.965Z,7.80
2022-10-28T15:35:27.777Z,7.40
2022-10-28T15:37:59.208Z,7.90
2022-10-28T15:40:32.389Z,7.70
2022-10-28T15:43:02.685Z,8.20
2022-10-28T15:45:32.433Z,7.90
2022-10-28T15:48:03.630Z,7.40
2022-10-28T15:50:33.371Z,8.40
2022-10-28T15:53:09.770Z,8.60
2022-10-28T15:56:06.954Z,7.80
2022-10-28T15:58:32.731Z,7.80
2022-10-28T16:01:00.397Z,8.70
2022-10-28T16:03:41.594Z,8.00
2022-10-28T16:06:29.377Z,8.30
2022-10-28T16:09:15.715Z,8.40
2022-10-28T16:11:47.674Z,8.80
2022-10-28T16:14:35.566Z,9.50
2022-10-28T16:17:16.071Z,9.60
2022-10-28T16:19:46.608Z,9.70
2022-10-28T16:22:14.312Z,9.50
2022-10-28T16:24:42.383Z,9.40
2022-10-28T16:27:22.300Z,10.40
2022-10-28T16:29:50.433Z,10.10
2022-10-28T16:32:22.907Z,10.30
2022-10-28T16:34:50.467Z,9.80
2022-10-28T16:37:27.403Z,10.20
2022-10-28T16:39:55.436Z,10.30
2022-10-28T16:42:23.648Z,10.70
2022-10-28T16:44:51.336Z,10.60
2022-10-28T16:47:20.730Z,11.10
2022-10-28T16:49:54.423Z,10.60
2022-10-28T16:52:28.827Z,10.30
2022-10-28T16:54:57.328Z,11.30
2022-10-28T16:57:25.639Z,11.50
2022-10-28T16:59:54.023Z,11.60
2022-10-28T17:02:30.818Z,10.40
2022-10-28T17:04:59.411Z,10.80
2022-10-28T17:07:27.824Z,12.70
2022-10-28T17:09:56.962Z,12.30
2022-10-28T17:12:26.634Z,13.00
2022-10-28T17:14:54.524Z,12.90
2022-10-28T17:17:22.098Z,13.10
2022-10-28T17:19:49.652Z,13.20
2022-10-28T17:22:17.408Z,13.00
2022-10-28T17:24:44.996Z,13.00
2022-10-28T17:27:13.271Z,13.10
2022-10-28T17:29:40.898Z,11.90
2022-10-28T17:32:08.642Z,12.00
2022-10-28T17:34:36.688Z,11.60
2022-10-28T17:37:04.642Z,12.80
2022-10-28T17:39:32.162Z,12.90
2022-10-28T17:42:00.180Z,12.70
2022-10-28T17:44:27.774Z,11.90
2022-10-28T17:46:55.323Z,12.00
2022-10-28T17:49:22.906Z,12.30
2022-10-28T17:51:51.437Z,12.50
2022-10-28T17:54:19.224Z,12.00
2022-10-28T17:56:47.836Z,12.40
2022-10-28T17:59:15.434Z,12.30
2022-10-28T18:01:43.057Z,12.40
2022-10-28T18:04:12.090Z,12.60
2022-10-28T18:06:39.707Z,12.70
2022-10-28T18:09:11.848Z,13.40
2022-10-28T18:11:39.952Z,13.20
2022-10-28T18:14:07.523Z,13.30
2022-10-28T18:16:37.091Z,13.90
2022-10-28T18:19:06.383Z,13.80
2022-10-28T18:21:34.485Z,14.10
2022-10-28T18:24:04.975Z,14.20
2022-10-28T18:26:35.056Z,13.80
2022-10-28T18:29:08.054Z,13.90
2022-10-28T18:31:37.569Z,13.20
2022-10-28T18:34:05.185Z,13.20
2022-10-28T18:36:35.505Z,13.40
2022-10-28T18:39:06.713Z,12.90
2022-10-28T18:41:42.188Z,13.60
2022-10-28T18:44:13.073Z,12.00
2022-10-28T18:46:40.950Z,12.80
2022-10-28T18:49:08.690Z,11.80
2022-10-28T18:51:36.832Z,12.00
2022-10-28T18:54:05.047Z,12.40
2022-10-28T18:56:35.403Z,12.80
2022-10-28T18:59:04.552Z,12.50
2022-10-28T19:01:33.506Z,11.40
2022-10-28T19:04:02.918Z,11.90
2022-10-28T19:06:32.712Z,12.40
2022-10-28T19:09:04.620Z,12.20
2022-10-28T19:11:33.985Z,12.30
2022-10-28T19:14:04.399Z,11.90
2022-10-28T19:16:35.439Z,12.30
2022-10-28T19:19:04.591Z,11.40
2022-10-28T19:21:32.944Z,12.00
2022-10-28T19:24:00.837Z,12.40
2022-10-28T19:26:31.994Z,12.60
2022-10-28T19:28:59.654Z,12.30
2022-10-28T19:31:27.851Z,12.00
2022-10-28T19:33:55.540Z,13.10
2022-10-28T19:36:26.244Z,12.40
2022-10-28T19:38:56.082Z,11.80
2022-10-28T19:41:29.781Z,11.60
2022-10-28T19:44:01.687Z,12.20
2022-10-28T19:46:35.504Z,12.50
2022-10-28T19:49:05.229Z,11.90
2022-10-28T19:51:39.072Z,11.90
2022-10-28T19:54:12.113Z,11.20
2022-10-28T19:56:40.363Z,11.40
2022-10-28T19:59:08.008Z,11.50
2022-10-28T20:01:38.091Z,11.10
2022-10-28T20:04:06.838Z,11.80
2022-10-28T20:06:37.273Z,11.90
2022-10-28T20:09:05.487Z,12.00
2022-10-28T20:11:35.476Z,12.60
2022-10-28T20:14:12.365Z,12.20
2022-10-28T20:16:43.620Z,10.70
2022-10-28T20:19:12.192Z,11.70
2022-10-28T20:21:39.795Z,11.90
2022-10-28T20:24:08.057Z,12.00
2022-10-28T20:26:37.975Z,11.80
2022-10-28T20:29:10.325Z,10.80
2022-10-28T20:31:39.059Z,11.70
2022-10-28T20:34:07.801Z,11.60
2022-10-28T20:36:38.633Z,11.90
2022-10-28T20:39:15.941Z,12.40
2022-10-28T20:41:46.029Z,12.10
2022-10-28T20:44:14.560Z,12.70
2022-10-28T20:46:42.395Z,12.30
2022-10-28T20:49:10.528Z,12.30
2022-10-28T20:51:38.072Z,12.00
2022-10-28T20:54:06.054Z,12.70
2022-10-28T20:56:37.215Z,12.40
2022-10-28T20:59:05.409Z,11.70
2022-10-28T21:01:35.836Z,11.90
2022-10-28T21:04:06.376Z,12.60
2022-10-28T21:06:34.537Z,11.80
2022-10-28T21:09:02.141Z,11.70
2022-10-28T21:11:29.794Z,11.00
2022-10-28T21:13:59.673Z,12.00
2022-10-28T21:16:28.410Z,11.30
2022-10-28T21:18:56.555Z,12.00
2022-10-28T21:21:24.938Z,12.00
2022-10-28T21:23:55.724Z,11.70
2022-10-28T21:26:23.311Z,12.00
2022-10-28T21:28:52.270Z,11.70
2022-10-28T21:31:21.239Z,11.60
2022-10-28T21:36:19.946Z,12.60
2022-10-28T21:38:47.948Z,13.20
2022-10-28T21:41:17.842Z,12.00
2022-10-28T21:43:50.387Z,11.80
2022-10-28T21:46:19.125Z,11.70
2022-10-28T21:48:47.066Z,12.10
2022-10-28T21:51:16.330Z,11.60
2022-10-28T21:53:44.746Z,11.90
2022-10-28T21:56:18.845Z,12.30
2022-10-28T21:58:48.961Z,13.00
2022-10-28T22:01:19.827Z,12.90
2022-10-28T22:03:47.555Z,12.90
2022-10-28T22:06:15.246Z,12.30
2022-10-28T22:08:42.892Z,12.40
2022-10-28T22:11:19.115Z,12.20
2022-10-28T22:14:01.594Z,12.60
2022-10-28T22:16:30.706Z,12.20
2022-10-28T22:18:59.913Z,12.00
2022-10-28T22:21:30.450Z,11.90
2022-10-28T22:23:57.984Z,12.30
2022-10-28T22:26:28.594Z,11.60
2022-10-28T22:28:57.033Z,12.10
2022-10-28T22:31:27.161Z,11.70
2022-10-28T22:33:55.350Z,12.10
2022-10-28T22:36:25.575Z,11.90
2022-10-28T22:38:53.380Z,11.30
2022-10-28T22:41:29.061Z,12.30
2022-10-28T22:43:58.641Z,11.30
2022-10-28T22:46:30.038Z,11.10
2022-10-28T22:48:57.797Z,12.60
2022-10-28T22:51:25.514Z,11.90
2022-10-28T22:53:53.322Z,11.50
2022-10-28T22:56:24.287Z,11.60
2022-10-28T22:58:54.609Z,12.20
2022-10-28T23:01:23.222Z,12.20
2022-10-28T23:03:52.942Z,11.80
2022-10-28T23:06:23.352Z,11.60
2022-10-28T23:08:51.001Z,11.80
2022-10-28T23:11:19.983Z,12.30
2022-10-28T23:13:52.736Z,12.10
2022-10-28T23:16:21.248Z,12.90
2022-10-28T23:18:48.872Z,11.50
2022-10-28T23:21:21.378Z,12.60
2022-10-28T23:23:54.087Z,12.20
2022-10-28T23:26:23.049Z,12.10
2022-10-28T23:28:52.811Z,11.80
2022-10-28T23:31:20.978Z,11.50
2022-10-28T23:33:49.280Z,12.10
2022-10-28T23:36:16.847Z,12.10
2022-10-28T23:38:44.686Z,11.20
2022-10-28T23:41:16.016Z,11.20
2022-10-28T23:43:44.403Z,11.40
2022-10-28T23:46:12.285Z,12.10
2022-10-28T23:48:39.924Z,11.50
2022-10-28T23:51:07.697Z,11.40
2022-10-28T23:53:35.408Z,11.00
2022-10-28T23:56:03.034Z,12.10
2022-10-28T23:58:30.612Z,11.60
